sensor_id;sensor_type;location;lat;lon;timestamp;P1;durP1;ratioP1;P2;durP2;ratioP2
5939;SDS011;2995;-31.998;115.906;2022-10-16T00:00:43;10.70;;;2.40;;
5939;SDS011;2995;-31.998;115.906;2022-10-16T00:03:17;9.43;;;2.10;;
5939;SDS011;2995;-31.998;115.906;2022-10-16T00:05:48;5.27;;;2.10;;
5939;SDS011;2995;-31.998;115.906;2022-10-16T00:08:23;5.70;;;1.90;;
5939;SDS011;2995;-31.998;115.906;2022-10-16T00:10:58;7.10;;;2.20;;
5939;SDS011;2995;-31.998;115.906;2022-10-16T00:13:30;5.73;;;1.80;;
5939;SDS011;2995;-31.998;115.906;2022-10-16T00:16:04;3.10;;;1.63;;
5939;SDS011;2995;-31.998;115.906;2022-10-16T00:18:36;3.67;;;1.60;;
5939;SDS011;2995;-31.998;115.906;2022-10-16T00:21:08;6.13;;;1.53;;
5939;SDS011;2995;-31.998;115.906;2022-10-16T00:23:43;6.00;;;1.40;;
5939;SDS011;2995;-31.998;115.906;2022-10-16T00:26:15;6.77;;;1.47;;
5939;SDS011;2995;-31.998;115.906;2022-10-16T00:28:46;3.50;;;1.40;;
5939;SDS011;2995;-31.998;115.906;2022-10-16T00:31:19;5.50;;;1.57;;
5939;SDS011;2995;-31.998;115.906;2022-10-16T00:33:54;2.43;;;1.10;;
5939;SDS011;2995;-31.998;115.906;2022-10-16T00:36:26;3.20;;;1.10;;
5939;SDS011;2995;-31.998;115.906;2022-10-16T00:39:00;3.93;;;1.40;;
5939;SDS011;2995;-31.998;115.906;2022-10-16T00:41:31;3.20;;;1.20;;
5939;SDS011;2995;-31.998;115.906;2022-10-16T00:44:03;2.67;;;1.07;;
5939;SDS011;2995;-31.998;115.906;2022-10-16T00:46:49;4.33;;;1.23;;
5939;SDS011;2995;-31.998;115.906;2022-10-16T00:49:21;2.80;;;1.13;;
5939;SDS011;2995;-31.998;115.906;2022-10-16T00:51:52;3.93;;;0.90;;
5939;SDS011;2995;-31.998;115.906;2022-10-16T00:54:27;2.10;;;0.90;;
5939;SDS011;2995;-31.998;115.906;2022-10-16T00:57:01;1.47;;;0.90;;
5939;SDS011;2995;-31.998;115.906;2022-10-16T00:59:34;4.20;;;0.80;;
5939;SDS011;2995;-31.998;115.906;2022-10-16T01:02:08;3.23;;;0.97;;
5939;SDS011;2995;-31.998;115.906;2022-10-16T01:04:40;1.63;;;0.80;;
5939;SDS011;2995;-31.998;115.906;2022-10-16T01:07:14;2.33;;;0.80;;
5939;SDS011;2995;-31.998;115.906;2022-10-16T01:09:57;1.40;;;0.83;;
5939;SDS011;2995;-31.998;115.906;2022-10-16T01:12:40;4.13;;;0.90;;
5939;SDS011;2995;-31.998;115.906;2022-10-16T01:15:16;1.50;;;0.67;;
5939;SDS011;2995;-31.998;115.906;2022-10-16T01:17:53;1.60;;;0.80;;
5939;SDS011;2995;-31.998;115.906;2022-10-16T01:20:29;2.70;;;0.70;;
5939;SDS011;2995;-31.998;115.906;2022-10-16T01:23:07;1.07;;;0.80;;
5939;SDS011;2995;-31.998;115.906;2022-10-16T01:25:58;5.70;;;0.80;;
5939;SDS011;2995;-31.998;115.906;2022-10-16T01:28:47;5.20;;;0.90;;
5939;SDS011;2995;-31.998;115.906;2022-10-16T01:31:26;4.10;;;0.90;;
5939;SDS011;2995;-31.998;115.906;2022-10-16T01:34:00;1.70;;;0.90;;
5939;SDS011;2995;-31.998;115.906;2022-10-16T01:36:35;4.73;;;1.10;;
5939;SDS011;2995;-31.998;115.906;2022-10-16T01:39:09;2.10;;;1.00;;
5939;SDS011;2995;-31.998;115.906;2022-10-16T01:41:43;1.90;;;0.93;;
5939;SDS011;2995;-31.998;115.906;2022-10-16T01:44:20;1.50;;;0.70;;
5939;SDS011;2995;-31.998;115.906;2022-10-16T01:46:55;1.50;;;0.80;;
5939;SDS011;2995;-31.998;115.906;2022-10-16T01:49:27;2.00;;;0.83;;
5939;SDS011;2995;-31.998;115.906;2022-10-16T01:52:04;1.47;;;0.83;;
5939;SDS011;2995;-31.998;115.906;2022-10-16T01:54:38;5.37;;;0.93;;
5939;SDS011;2995;-31.998;115.906;2022-10-16T01:57:12;3.00;;;1.00;;
5939;SDS011;2995;-31.998;115.906;2022-10-16T01:59:47;1.67;;;0.90;;
5939;SDS011;2995;-31.998;115.906;2022-10-16T02:02:22;2.30;;;0.80;;
5939;SDS011;2995;-31.998;115.906;2022-10-16T02:04:56;2.03;;;1.00;;
5939;SDS011;2995;-31.998;115.906;2022-10-16T02:07:33;1.73;;;0.60;;
5939;SDS011;2995;-31.998;115.906;2022-10-16T02:10:05;1.40;;;0.70;;
5939;SDS011;2995;-31.998;115.906;2022-10-16T02:12:37;1.50;;;0.70;;
5939;SDS011;2995;-31.998;115.906;2022-10-16T02:15:13;1.33;;;0.73;;
5939;SDS011;2995;-31.998;115.906;2022-10-16T02:17:44;1.60;;;0.80;;
5939;SDS011;2995;-31.998;115.906;2022-10-16T02:20:16;1.70;;;0.77;;
5939;SDS011;2995;-31.998;115.906;2022-10-16T02:22:50;1.13;;;0.70;;
5939;SDS011;2995;-31.998;115.906;2022-10-16T02:25:24;6.07;;;0.80;;
5939;SDS011;2995;-31.998;115.906;2022-10-16T02:28:00;1.17;;;0.80;;
5939;SDS011;2995;-31.998;115.906;2022-10-16T02:30:39;3.97;;;0.80;;
5939;SDS011;2995;-31.998;115.906;2022-10-16T02:33:14;2.30;;;0.70;;
5939;SDS011;2995;-31.998;115.906;2022-10-16T02:35:47;1.00;;;0.70;;
5939;SDS011;2995;-31.998;115.906;2022-10-16T02:38:19;1.37;;;0.80;;
5939;SDS011;2995;-31.998;115.906;2022-10-16T02:40:52;2.97;;;0.80;;
5939;SDS011;2995;-31.998;115.906;2022-10-16T02:43:24;2.83;;;0.70;;
5939;SDS011;2995;-31.998;115.906;2022-10-16T02:45:58;2.17;;;0.70;;
5939;SDS011;2995;-31.998;115.906;2022-10-16T02:48:29;1.73;;;0.80;;
5939;SDS011;2995;-31.998;115.906;2022-10-16T02:51:01;1.53;;;0.80;;
5939;SDS011;2995;-31.998;115.906;2022-10-16T02:53:32;1.63;;;0.73;;
5939;SDS011;2995;-31.998;115.906;2022-10-16T02:56:03;2.60;;;0.70;;
5939;SDS011;2995;-31.998;115.906;2022-10-16T02:58:35;1.13;;;0.70;;
5939;SDS011;2995;-31.998;115.906;2022-10-16T03:01:08;3.37;;;1.10;;
5939;SDS011;2995;-31.998;115.906;2022-10-16T03:03:40;1.60;;;0.80;;
5939;SDS011;2995;-31.998;115.906;2022-10-16T03:06:11;3.10;;;0.80;;
5939;SDS011;2995;-31.998;115.906;2022-10-16T03:08:43;1.57;;;0.90;;
5939;SDS011;2995;-31.998;115.906;2022-10-16T03:11:15;3.67;;;0.90;;
5939;SDS011;2995;-31.998;115.906;2022-10-16T03:13:46;2.07;;;0.80;;
5939;SDS011;2995;-31.998;115.906;2022-10-16T03:16:20;1.63;;;0.70;;
5939;SDS011;2995;-31.998;115.906;2022-10-16T03:18:51;2.77;;;0.80;;
5939;SDS011;2995;-31.998;115.906;2022-10-16T03:21:22;0.90;;;0.50;;
5939;SDS011;2995;-31.998;115.906;2022-10-16T03:23:53;2.00;;;0.80;;
5939;SDS011;2995;-31.998;115.906;2022-10-16T03:26:24;1.40;;;0.80;;
5939;SDS011;2995;-31.998;115.906;2022-10-16T03:28:56;5.50;;;0.90;;
5939;SDS011;2995;-31.998;115.906;2022-10-16T03:31:30;1.60;;;0.80;;
5939;SDS011;2995;-31.998;115.906;2022-10-16T03:34:01;1.97;;;0.70;;
5939;SDS011;2995;-31.998;115.906;2022-10-16T03:36:34;1.60;;;0.83;;
5939;SDS011;2995;-31.998;115.906;2022-10-16T03:39:08;2.30;;;0.60;;
5939;SDS011;2995;-31.998;115.906;2022-10-16T03:41:40;1.17;;;0.60;;
5939;SDS011;2995;-31.998;115.906;2022-10-16T03:44:12;2.60;;;0.70;;
5939;SDS011;2995;-31.998;115.906;2022-10-16T03:46:46;0.80;;;0.53;;
5939;SDS011;2995;-31.998;115.906;2022-10-16T03:49:17;1.47;;;0.80;;
5939;SDS011;2995;-31.998;115.906;2022-10-16T03:51:48;1.10;;;0.80;;
5939;SDS011;2995;-31.998;115.906;2022-10-16T03:54:19;1.43;;;0.80;;
5939;SDS011;2995;-31.998;115.906;2022-10-16T03:56:52;1.60;;;0.90;;
5939;SDS011;2995;-31.998;115.906;2022-10-16T03:59:23;1.27;;;0.60;;
5939;SDS011;2995;-31.998;115.906;2022-10-16T04:01:56;1.00;;;0.60;;
5939;SDS011;2995;-31.998;115.906;2022-10-16T04:04:28;1.30;;;0.70;;
5939;SDS011;2995;-31.998;115.906;2022-10-16T04:06:59;1.30;;;0.70;;
5939;SDS011;2995;-31.998;115.906;2022-10-16T04:09:30;1.40;;;0.80;;
5939;SDS011;2995;-31.998;115.906;2022-10-16T04:12:02;1.30;;;0.63;;
5939;SDS011;2995;-31.998;115.906;2022-10-16T04:14:33;1.73;;;0.70;;
5939;SDS011;2995;-31.998;115.906;2022-10-16T04:17:07;2.20;;;0.80;;
5939;SDS011;2995;-31.998;115.906;2022-10-16T04:19:38;1.20;;;0.70;;
5939;SDS011;2995;-31.998;115.906;2022-10-16T04:22:10;19.47;;;1.43;;
5939;SDS011;2995;-31.998;115.906;2022-10-16T04:24:41;2.13;;;0.90;;
5939;SDS011;2995;-31.998;115.906;2022-10-16T04:27:12;1.83;;;1.00;;
5939;SDS011;2995;-31.998;115.906;2022-10-16T04:29:43;0.80;;;0.60;;
5939;SDS011;2995;-31.998;115.906;2022-10-16T04:32:16;1.10;;;0.70;;
5939;SDS011;2995;-31.998;115.906;2022-10-16T04:34:48;0.90;;;0.60;;
5939;SDS011;2995;-31.998;115.906;2022-10-16T04:37:22;2.90;;;0.70;;
5939;SDS011;2995;-31.998;115.906;2022-10-16T04:39:54;1.53;;;0.70;;
5939;SDS011;2995;-31.998;115.906;2022-10-16T04:42:25;3.10;;;0.70;;
5939;SDS011;2995;-31.998;115.906;2022-10-16T04:44:56;1.57;;;0.80;;
5939;SDS011;2995;-31.998;115.906;2022-10-16T04:47:31;1.07;;;0.60;;
5939;SDS011;2995;-31.998;115.906;2022-10-16T04:50:02;1.30;;;0.80;;
5939;SDS011;2995;-31.998;115.906;2022-10-16T04:52:34;3.90;;;0.70;;
5939;SDS011;2995;-31.998;115.906;2022-10-16T04:55:08;2.10;;;0.80;;
5939;SDS011;2995;-31.998;115.906;2022-10-16T04:57:40;1.50;;;0.77;;
5939;SDS011;2995;-31.998;115.906;2022-10-16T05:00:12;0.93;;;0.60;;
5939;SDS011;2995;-31.998;115.906;2022-10-16T05:02:45;0.90;;;0.67;;
5939;SDS011;2995;-31.998;115.906;2022-10-16T05:05:16;1.10;;;0.77;;
5939;SDS011;2995;-31.998;115.906;2022-10-16T05:07:47;2.10;;;0.80;;
5939;SDS011;2995;-31.998;115.906;2022-10-16T05:10:19;2.93;;;0.77;;
5939;SDS011;2995;-31.998;115.906;2022-10-16T05:12:51;1.30;;;0.70;;
5939;SDS011;2995;-31.998;115.906;2022-10-16T05:15:24;1.20;;;0.70;;
5939;SDS011;2995;-31.998;115.906;2022-10-16T05:17:57;1.83;;;0.70;;
5939;SDS011;2995;-31.998;115.906;2022-10-16T05:20:28;1.40;;;0.70;;
5939;SDS011;2995;-31.998;115.906;2022-10-16T05:23:00;1.23;;;0.70;;
5939;SDS011;2995;-31.998;115.906;2022-10-16T05:25:31;1.60;;;0.80;;
5939;SDS011;2995;-31.998;115.906;2022-10-16T05:28:02;2.07;;;0.90;;
5939;SDS011;2995;-31.998;115.906;2022-10-16T05:30:33;1.77;;;0.87;;
5939;SDS011;2995;-31.998;115.906;2022-10-16T05:33:09;3.70;;;0.80;;
5939;SDS011;2995;-31.998;115.906;2022-10-16T05:35:40;0.87;;;0.60;;
5939;SDS011;2995;-31.998;115.906;2022-10-16T05:38:11;1.30;;;0.70;;
5939;SDS011;2995;-31.998;115.906;2022-10-16T05:40:42;1.73;;;1.00;;
5939;SDS011;2995;-31.998;115.906;2022-10-16T05:43:19;2.40;;;0.87;;
5939;SDS011;2995;-31.998;115.906;2022-10-16T05:45:54;1.40;;;0.70;;
5939;SDS011;2995;-31.998;115.906;2022-10-16T05:48:28;2.20;;;0.67;;
5939;SDS011;2995;-31.998;115.906;2022-10-16T05:51:00;1.50;;;0.70;;
5939;SDS011;2995;-31.998;115.906;2022-10-16T05:53:33;1.27;;;0.73;;
5939;SDS011;2995;-31.998;115.906;2022-10-16T05:56:06;1.40;;;0.67;;
5939;SDS011;2995;-31.998;115.906;2022-10-16T05:58:39;1.90;;;0.63;;
5939;SDS011;2995;-31.998;115.906;2022-10-16T06:01:11;1.70;;;0.70;;
5939;SDS011;2995;-31.998;115.906;2022-10-16T06:03:45;1.00;;;0.60;;
5939;SDS011;2995;-31.998;115.906;2022-10-16T06:06:16;1.20;;;0.60;;
5939;SDS011;2995;-31.998;115.906;2022-10-16T06:08:50;3.67;;;0.70;;
5939;SDS011;2995;-31.998;115.906;2022-10-16T06:11:22;1.60;;;0.70;;
5939;SDS011;2995;-31.998;115.906;2022-10-16T06:13:55;2.13;;;1.20;;
5939;SDS011;2995;-31.998;115.906;2022-10-16T06:16:29;1.00;;;0.77;;
5939;SDS011;2995;-31.998;115.906;2022-10-16T06:19:03;1.80;;;0.83;;
5939;SDS011;2995;-31.998;115.906;2022-10-16T06:21:35;1.47;;;0.77;;
5939;SDS011;2995;-31.998;115.906;2022-10-16T06:24:09;0.80;;;0.60;;
5939;SDS011;2995;-31.998;115.906;2022-10-16T06:26:40;1.07;;;0.80;;
5939;SDS011;2995;-31.998;115.906;2022-10-16T06:29:11;2.13;;;0.63;;
5939;SDS011;2995;-31.998;115.906;2022-10-16T06:31:42;2.13;;;0.80;;
5939;SDS011;2995;-31.998;115.906;2022-10-16T06:34:16;1.00;;;0.70;;
5939;SDS011;2995;-31.998;115.906;2022-10-16T06:36:47;1.20;;;0.60;;
5939;SDS011;2995;-31.998;115.906;2022-10-16T06:39:18;1.63;;;0.60;;
5939;SDS011;2995;-31.998;115.906;2022-10-16T06:41:49;1.00;;;0.60;;
5939;SDS011;2995;-31.998;115.906;2022-10-16T06:44:22;0.90;;;0.67;;
5939;SDS011;2995;-31.998;115.906;2022-10-16T06:46:53;1.23;;;0.70;;
5939;SDS011;2995;-31.998;115.906;2022-10-16T06:49:26;2.13;;;1.00;;
5939;SDS011;2995;-31.998;115.906;2022-10-16T06:51:58;2.60;;;0.73;;
5939;SDS011;2995;-31.998;115.906;2022-10-16T06:54:31;1.33;;;0.80;;
5939;SDS011;2995;-31.998;115.906;2022-10-16T06:57:02;2.30;;;0.83;;
5939;SDS011;2995;-31.998;115.906;2022-10-16T06:59:33;1.17;;;0.60;;
5939;SDS011;2995;-31.998;115.906;2022-10-16T07:02:05;1.00;;;0.70;;
5939;SDS011;2995;-31.998;115.906;2022-10-16T07:04:39;1.33;;;0.80;;
5939;SDS011;2995;-31.998;115.906;2022-10-16T07:07:10;2.50;;;0.90;;
5939;SDS011;2995;-31.998;115.906;2022-10-16T07:09:41;1.53;;;0.70;;
5939;SDS011;2995;-31.998;115.906;2022-10-16T07:12:13;4.90;;;0.80;;
5939;SDS011;2995;-31.998;115.906;2022-10-16T07:14:44;1.17;;;0.70;;
5939;SDS011;2995;-31.998;115.906;2022-10-16T07:17:15;1.80;;;0.70;;
5939;SDS011;2995;-31.998;115.906;2022-10-16T07:19:48;2.70;;;0.83;;
5939;SDS011;2995;-31.998;115.906;2022-10-16T07:22:21;1.40;;;0.77;;
5939;SDS011;2995;-31.998;115.906;2022-10-16T07:24:52;1.10;;;0.60;;
5939;SDS011;2995;-31.998;115.906;2022-10-16T07:27:23;0.97;;;0.60;;
5939;SDS011;2995;-31.998;115.906;2022-10-16T07:29:55;1.17;;;0.53;;
5939;SDS011;2995;-31.998;115.906;2022-10-16T07:32:26;1.43;;;0.70;;
5939;SDS011;2995;-31.998;115.906;2022-10-16T07:35:01;1.30;;;0.70;;
5939;SDS011;2995;-31.998;115.906;2022-10-16T07:37:35;1.40;;;0.67;;
5939;SDS011;2995;-31.998;115.906;2022-10-16T07:40:08;1.87;;;0.83;;
5939;SDS011;2995;-31.998;115.906;2022-10-16T07:42:39;0.70;;;0.50;;
5939;SDS011;2995;-31.998;115.906;2022-10-16T07:45:11;1.43;;;0.63;;
5939;SDS011;2995;-31.998;115.906;2022-10-16T07:47:43;1.10;;;0.80;;
5939;SDS011;2995;-31.998;115.906;2022-10-16T07:50:17;1.60;;;0.70;;
5939;SDS011;2995;-31.998;115.906;2022-10-16T07:52:49;0.80;;;0.50;;
5939;SDS011;2995;-31.998;115.906;2022-10-16T07:55:21;1.47;;;0.70;;
5939;SDS011;2995;-31.998;115.906;2022-10-16T07:57:52;5.40;;;0.60;;
5939;SDS011;2995;-31.998;115.906;2022-10-16T08:00:23;1.63;;;0.50;;
5939;SDS011;2995;-31.998;115.906;2022-10-16T08:02:55;0.97;;;0.70;;
5939;SDS011;2995;-31.998;115.906;2022-10-16T08:05:29;1.13;;;0.73;;
5939;SDS011;2995;-31.998;115.906;2022-10-16T08:08:02;1.30;;;0.73;;
5939;SDS011;2995;-31.998;115.906;2022-10-16T08:10:34;0.87;;;0.60;;
5939;SDS011;2995;-31.998;115.906;2022-10-16T08:13:07;1.63;;;0.70;;
5939;SDS011;2995;-31.998;115.906;2022-10-16T08:15:41;0.80;;;0.50;;
5939;SDS011;2995;-31.998;115.906;2022-10-16T08:18:12;2.93;;;1.87;;
5939;SDS011;2995;-31.998;115.906;2022-10-16T08:20:46;1.10;;;0.70;;
5939;SDS011;2995;-31.998;115.906;2022-10-16T08:23:17;1.87;;;0.70;;
5939;SDS011;2995;-31.998;115.906;2022-10-16T08:25:48;1.20;;;0.77;;
5939;SDS011;2995;-31.998;115.906;2022-10-16T08:28:20;1.47;;;0.97;;
5939;SDS011;2995;-31.998;115.906;2022-10-16T08:30:51;2.53;;;0.80;;
5939;SDS011;2995;-31.998;115.906;2022-10-16T08:33:23;0.80;;;0.50;;
5939;SDS011;2995;-31.998;115.906;2022-10-16T08:35:56;0.80;;;0.63;;
5939;SDS011;2995;-31.998;115.906;2022-10-16T08:38:27;1.13;;;0.70;;
5939;SDS011;2995;-31.998;115.906;2022-10-16T08:41:01;2.70;;;0.80;;
5939;SDS011;2995;-31.998;115.906;2022-10-16T08:43:55;0.70;;;0.50;;
5939;SDS011;2995;-31.998;115.906;2022-10-16T08:46:45;1.77;;;0.70;;
5939;SDS011;2995;-31.998;115.906;2022-10-16T08:49:22;4.53;;;0.70;;
5939;SDS011;2995;-31.998;115.906;2022-10-16T08:51:57;3.33;;;0.70;;
5939;SDS011;2995;-31.998;115.906;2022-10-16T08:54:29;1.60;;;0.70;;
5939;SDS011;2995;-31.998;115.906;2022-10-16T08:57:07;1.37;;;0.50;;
5939;SDS011;2995;-31.998;115.906;2022-10-16T08:59:41;1.27;;;0.70;;
5939;SDS011;2995;-31.998;115.906;2022-10-16T09:02:22;2.30;;;0.77;;
5939;SDS011;2995;-31.998;115.906;2022-10-16T09:05:00;3.30;;;0.70;;
5939;SDS011;2995;-31.998;115.906;2022-10-16T09:07:51;0.93;;;0.60;;
5939;SDS011;2995;-31.998;115.906;2022-10-16T09:10:34;3.13;;;0.63;;
5939;SDS011;2995;-31.998;115.906;2022-10-16T09:13:18;1.40;;;0.70;;
5939;SDS011;2995;-31.998;115.906;2022-10-16T09:15:58;0.83;;;0.60;;
5939;SDS011;2995;-31.998;115.906;2022-10-16T09:18:37;2.40;;;0.80;;
5939;SDS011;2995;-31.998;115.906;2022-10-16T09:21:14;1.00;;;0.60;;
5939;SDS011;2995;-31.998;115.906;2022-10-16T09:23:50;1.20;;;0.60;;
5939;SDS011;2995;-31.998;115.906;2022-10-16T09:26:23;0.90;;;0.60;;
5939;SDS011;2995;-31.998;115.906;2022-10-16T09:28:54;1.30;;;0.67;;
5939;SDS011;2995;-31.998;115.906;2022-10-16T09:31:25;1.50;;;0.60;;
5939;SDS011;2995;-31.998;115.906;2022-10-16T09:33:58;1.63;;;0.90;;
5939;SDS011;2995;-31.998;115.906;2022-10-16T09:36:33;2.93;;;2.73;;
5939;SDS011;2995;-31.998;115.906;2022-10-16T09:39:11;3.90;;;1.23;;
5939;SDS011;2995;-31.998;115.906;2022-10-16T09:41:43;8.77;;;7.70;;
5939;SDS011;2995;-31.998;115.906;2022-10-16T09:44:17;21.73;;;18.23;;
5939;SDS011;2995;-31.998;115.906;2022-10-16T09:47:01;12.87;;;11.80;;
5939;SDS011;2995;-31.998;115.906;2022-10-16T09:49:33;3.70;;;3.40;;
5939;SDS011;2995;-31.998;115.906;2022-10-16T09:52:05;5.20;;;4.90;;
5939;SDS011;2995;-31.998;115.906;2022-10-16T09:54:51;7.20;;;6.60;;
5939;SDS011;2995;-31.998;115.906;2022-10-16T09:57:23;5.07;;;4.63;;
5939;SDS011;2995;-31.998;115.906;2022-10-16T09:59:56;9.37;;;8.57;;
5939;SDS011;2995;-31.998;115.906;2022-10-16T10:02:28;9.37;;;8.57;;
5939;SDS011;2995;-31.998;115.906;2022-10-16T10:05:04;16.73;;;14.93;;
5939;SDS011;2995;-31.998;115.906;2022-10-16T10:07:52;2.60;;;2.00;;
5939;SDS011;2995;-31.998;115.906;2022-10-16T10:10:27;2.60;;;1.37;;
5939;SDS011;2995;-31.998;115.906;2022-10-16T10:13:00;17.63;;;15.73;;
5939;SDS011;2995;-31.998;115.906;2022-10-16T10:15:33;15.93;;;14.33;;
5939;SDS011;2995;-31.998;115.906;2022-10-16T10:18:15;17.47;;;15.80;;
5939;SDS011;2995;-31.998;115.906;2022-10-16T10:20:57;10.80;;;9.67;;
5939;SDS011;2995;-31.998;115.906;2022-10-16T10:23:29;9.23;;;8.33;;
5939;SDS011;2995;-31.998;115.906;2022-10-16T10:26:03;5.03;;;3.23;;
5939;SDS011;2995;-31.998;115.906;2022-10-16T10:28:48;1.70;;;1.60;;
5939;SDS011;2995;-31.998;115.906;2022-10-16T10:31:29;7.97;;;7.17;;
5939;SDS011;2995;-31.998;115.906;2022-10-16T10:34:11;7.10;;;6.50;;
5939;SDS011;2995;-31.998;115.906;2022-10-16T10:36:52;7.10;;;6.10;;
5939;SDS011;2995;-31.998;115.906;2022-10-16T10:39:30;10.03;;;8.37;;
5939;SDS011;2995;-31.998;115.906;2022-10-16T10:42:15;6.33;;;3.33;;
5939;SDS011;2995;-31.998;115.906;2022-10-16T10:44:56;4.20;;;3.20;;
5939;SDS011;2995;-31.998;115.906;2022-10-16T10:47:39;6.10;;;4.60;;
5939;SDS011;2995;-31.998;115.906;2022-10-16T10:50:19;4.53;;;3.53;;
5939;SDS011;2995;-31.998;115.906;2022-10-16T10:52:58;12.23;;;10.30;;
5939;SDS011;2995;-31.998;115.906;2022-10-16T10:55:39;8.07;;;5.40;;
5939;SDS011;2995;-31.998;115.906;2022-10-16T11:01:12;17.27;;;14.37;;
5939;SDS011;2995;-31.998;115.906;2022-10-16T11:03:51;12.10;;;7.57;;
5939;SDS011;2995;-31.998;115.906;2022-10-16T11:06:32;16.27;;;11.03;;
5939;SDS011;2995;-31.998;115.906;2022-10-16T11:09:09;8.50;;;6.50;;
5939;SDS011;2995;-31.998;115.906;2022-10-16T11:11:45;1.83;;;1.27;;
5939;SDS011;2995;-31.998;115.906;2022-10-16T11:14:21;14.50;;;11.27;;
5939;SDS011;2995;-31.998;115.906;2022-10-16T11:16:58;7.80;;;6.10;;
5939;SDS011;2995;-31.998;115.906;2022-10-16T11:19:39;7.50;;;5.40;;
5939;SDS011;2995;-31.998;115.906;2022-10-16T11:22:15;2.67;;;2.00;;
5939;SDS011;2995;-31.998;115.906;2022-10-16T11:24:53;6.77;;;4.70;;
5939;SDS011;2995;-31.998;115.906;2022-10-16T11:27:31;2.57;;;2.20;;
5939;SDS011;2995;-31.998;115.906;2022-10-16T11:30:12;6.27;;;4.90;;
5939;SDS011;2995;-31.998;115.906;2022-10-16T11:35:50;4.23;;;3.63;;
5939;SDS011;2995;-31.998;115.906;2022-10-16T11:38:27;7.00;;;2.70;;
5939;SDS011;2995;-31.998;115.906;2022-10-16T11:41:03;3.43;;;1.50;;
5939;SDS011;2995;-31.998;115.906;2022-10-16T11:43:43;3.30;;;1.97;;
5939;SDS011;2995;-31.998;115.906;2022-10-16T11:46:21;12.47;;;11.03;;
5939;SDS011;2995;-31.998;115.906;2022-10-16T11:48:57;3.40;;;3.10;;
5939;SDS011;2995;-31.998;115.906;2022-10-16T11:51:38;5.70;;;5.13;;
5939;SDS011;2995;-31.998;115.906;2022-10-16T11:54:14;6.87;;;5.57;;
5939;SDS011;2995;-31.998;115.906;2022-10-16T11:56:51;9.63;;;6.17;;
5939;SDS011;2995;-31.998;115.906;2022-10-16T11:59:28;4.10;;;2.70;;
5939;SDS011;2995;-31.998;115.906;2022-10-16T12:02:11;4.23;;;1.67;;
5939;SDS011;2995;-31.998;115.906;2022-10-16T12:04:56;16.13;;;10.90;;
5939;SDS011;2995;-31.998;115.906;2022-10-16T12:07:36;12.33;;;5.20;;
5939;SDS011;2995;-31.998;115.906;2022-10-16T12:10:19;9.80;;;6.60;;
5939;SDS011;2995;-31.998;115.906;2022-10-16T12:12:52;14.43;;;7.00;;
5939;SDS011;2995;-31.998;115.906;2022-10-16T12:15:25;10.10;;;7.10;;
5939;SDS011;2995;-31.998;115.906;2022-10-16T12:17:59;4.07;;;3.30;;
5939;SDS011;2995;-31.998;115.906;2022-10-16T12:20:30;8.40;;;5.97;;
5939;SDS011;2995;-31.998;115.906;2022-10-16T12:23:02;5.37;;;4.87;;
5939;SDS011;2995;-31.998;115.906;2022-10-16T12:25:35;7.37;;;5.60;;
5939;SDS011;2995;-31.998;115.906;2022-10-16T12:28:19;5.47;;;4.27;;
5939;SDS011;2995;-31.998;115.906;2022-10-16T12:30:55;2.10;;;1.70;;
5939;SDS011;2995;-31.998;115.906;2022-10-16T12:33:34;7.47;;;4.80;;
5939;SDS011;2995;-31.998;115.906;2022-10-16T12:36:07;9.23;;;4.33;;
5939;SDS011;2995;-31.998;115.906;2022-10-16T12:38:46;7.03;;;5.30;;
5939;SDS011;2995;-31.998;115.906;2022-10-16T12:41:24;2.10;;;1.13;;
5939;SDS011;2995;-31.998;115.906;2022-10-16T12:43:57;3.57;;;2.10;;
5939;SDS011;2995;-31.998;115.906;2022-10-16T12:46:37;6.27;;;5.70;;
5939;SDS011;2995;-31.998;115.906;2022-10-16T12:49:21;5.50;;;5.07;;
5939;SDS011;2995;-31.998;115.906;2022-10-16T12:51:59;2.27;;;2.07;;
5939;SDS011;2995;-31.998;115.906;2022-10-16T12:54:30;2.30;;;1.60;;
5939;SDS011;2995;-31.998;115.906;2022-10-16T12:57:16;4.20;;;1.33;;
5939;SDS011;2995;-31.998;115.906;2022-10-16T13:00:02;1.73;;;1.23;;
5939;SDS011;2995;-31.998;115.906;2022-10-16T13:02:49;1.10;;;0.80;;
5939;SDS011;2995;-31.998;115.906;2022-10-16T13:05:35;2.60;;;0.90;;
5939;SDS011;2995;-31.998;115.906;2022-10-16T13:08:22;1.63;;;0.80;;
5939;SDS011;2995;-31.998;115.906;2022-10-16T13:11:04;7.03;;;0.90;;
5939;SDS011;2995;-31.998;115.906;2022-10-16T13:13:44;2.53;;;0.73;;
5939;SDS011;2995;-31.998;115.906;2022-10-16T13:16:33;1.20;;;0.80;;
5939;SDS011;2995;-31.998;115.906;2022-10-16T13:19:15;1.53;;;0.87;;
5939;SDS011;2995;-31.998;115.906;2022-10-16T13:21:58;1.47;;;1.17;;
5939;SDS011;2995;-31.998;115.906;2022-10-16T13:24:40;1.90;;;0.80;;
5939;SDS011;2995;-31.998;115.906;2022-10-16T13:27:22;2.60;;;0.70;;
5939;SDS011;2995;-31.998;115.906;2022-10-16T13:30:08;2.10;;;0.90;;
5939;SDS011;2995;-31.998;115.906;2022-10-16T13:32:44;1.33;;;0.67;;
5939;SDS011;2995;-31.998;115.906;2022-10-16T13:35:21;1.50;;;0.90;;
5939;SDS011;2995;-31.998;115.906;2022-10-16T13:38:05;1.93;;;0.80;;
5939;SDS011;2995;-31.998;115.906;2022-10-16T13:40:51;1.00;;;0.80;;
5939;SDS011;2995;-31.998;115.906;2022-10-16T13:43:24;1.77;;;0.70;;
5939;SDS011;2995;-31.998;115.906;2022-10-16T13:45:58;3.10;;;0.90;;
5939;SDS011;2995;-31.998;115.906;2022-10-16T13:48:31;2.23;;;1.30;;
5939;SDS011;2995;-31.998;115.906;2022-10-16T13:51:04;2.20;;;0.70;;
5939;SDS011;2995;-31.998;115.906;2022-10-16T13:53:43;1.57;;;0.80;;
5939;SDS011;2995;-31.998;115.906;2022-10-16T13:56:15;1.93;;;1.00;;
5939;SDS011;2995;-31.998;115.906;2022-10-16T13:58:58;2.23;;;2.03;;
5939;SDS011;2995;-31.998;115.906;2022-10-16T14:01:30;3.60;;;2.27;;
5939;SDS011;2995;-31.998;115.906;2022-10-16T14:04:04;3.87;;;2.43;;
5939;SDS011;2995;-31.998;115.906;2022-10-16T14:06:36;2.67;;;1.60;;
5939;SDS011;2995;-31.998;115.906;2022-10-16T14:09:17;2.90;;;1.27;;
5939;SDS011;2995;-31.998;115.906;2022-10-16T14:11:53;1.50;;;1.10;;
5939;SDS011;2995;-31.998;115.906;2022-10-16T14:14:39;3.73;;;1.20;;
5939;SDS011;2995;-31.998;115.906;2022-10-16T14:17:15;3.17;;;1.00;;
5939;SDS011;2995;-31.998;115.906;2022-10-16T14:19:51;1.10;;;0.90;;
5939;SDS011;2995;-31.998;115.906;2022-10-16T14:22:28;2.03;;;0.93;;
5939;SDS011;2995;-31.998;115.906;2022-10-16T14:25:13;2.13;;;1.00;;
5939;SDS011;2995;-31.998;115.906;2022-10-16T14:27:58;1.63;;;1.03;;
5939;SDS011;2995;-31.998;115.906;2022-10-16T14:30:32;1.00;;;0.73;;
5939;SDS011;2995;-31.998;115.906;2022-10-16T14:33:05;1.77;;;0.90;;
5939;SDS011;2995;-31.998;115.906;2022-10-16T14:35:59;3.47;;;0.70;;
5939;SDS011;2995;-31.998;115.906;2022-10-16T14:38:35;2.37;;;0.80;;
5939;SDS011;2995;-31.998;115.906;2022-10-16T14:41:09;1.53;;;0.80;;
5939;SDS011;2995;-31.998;115.906;2022-10-16T14:43:40;1.70;;;0.87;;
5939;SDS011;2995;-31.998;115.906;2022-10-16T14:46:13;1.10;;;0.80;;
5939;SDS011;2995;-31.998;115.906;2022-10-16T14:48:46;3.17;;;0.80;;
5939;SDS011;2995;-31.998;115.906;2022-10-16T14:51:19;2.20;;;0.80;;
5939;SDS011;2995;-31.998;115.906;2022-10-16T14:53:50;3.43;;;1.10;;
5939;SDS011;2995;-31.998;115.906;2022-10-16T14:56:24;1.10;;;1.00;;
5939;SDS011;2995;-31.998;115.906;2022-10-16T14:58:59;1.30;;;1.07;;
5939;SDS011;2995;-31.998;115.906;2022-10-16T15:01:31;3.23;;;1.00;;
5939;SDS011;2995;-31.998;115.906;2022-10-16T15:04:02;1.70;;;1.10;;
5939;SDS011;2995;-31.998;115.906;2022-10-16T15:06:34;2.10;;;0.90;;
5939;SDS011;2995;-31.998;115.906;2022-10-16T15:09:05;2.80;;;0.97;;
5939;SDS011;2995;-31.998;115.906;2022-10-16T15:11:38;2.03;;;1.10;;
5939;SDS011;2995;-31.998;115.906;2022-10-16T15:14:11;1.00;;;0.90;;
5939;SDS011;2995;-31.998;115.906;2022-10-16T15:16:43;1.40;;;1.00;;
5939;SDS011;2995;-31.998;115.906;2022-10-16T15:19:14;3.17;;;1.17;;
5939;SDS011;2995;-31.998;115.906;2022-10-16T15:21:45;3.63;;;1.00;;
5939;SDS011;2995;-31.998;115.906;2022-10-16T15:24:17;3.90;;;1.20;;